Skip Navigation LinksHome page > Weather > Current weather Skip Navigation Links

Current Weather

Honolulu Intl, Honolulu

For information only: do not use for flight planning or navigation.
Latest weather
Observation time Friday, May 27, 2016 6:53 PM HST
Local time Friday, May 27, 2016 7:56 PM HST
Flight conditions Visual Meteorological Conditions
Winds
Wind direction Northwest (310°)
Wind speed 12 mph
Visibility 10 mi.
Sky condition
Ceiling 8,000 ft. broken clouds
Cloud layer few clouds 2,600 ft.
Cloud layer scattered clouds 4,500 ft.
Cloud layer broken clouds 8,000 ft.
Temperature 77°F
Dewpoint 69°F
Altimeter 30.05 in.Hg
Derived measurements
Relative humidity 77%
Heat index 77°F
Density altitude 1353 ft.
Sea-level pressure 30.05 in.Hg
Remarks
Automated weather observing station with precipitation discriminator.
Northeast east distant northwest.
METAR PHNL 280453Z 31010KT 10SM FEW026 SCT045 BKN080 25/21 A3005 RMK AO2 SLP176 VCSH NE-E SHRA DSNT NW T02500206

Settings

Location code

InnerDrive.Weather 4.0.5722.1 Release CLR 4.0.30319.34209
Copyright ©2015 Inner Drive Technology. All rights reserved. Portions Copyright ©1986-2015 David Braverman.

Find weather

Site navigation


Skip Navigation Links

Place info

Page info

PayPal - The safer, easier way to pay online!

Return home.

Copyright ©2016 Inner Drive Technology. Purveyors of fine, hand-crafted computer software. Page printed 2016-05-28T05:56:37 UTC.